sensor_id;sensor_type;location;lat;lon;timestamp;pressure;altitude;pressure_sealevel;temperature;humidity
14594;BME280;7383;52.354;9.756;2022-11-15T00:00:46;-12624.38;;;9.70;100.00
14594;BME280;7383;52.354;9.756;2022-11-15T00:03:14;-12624.28;;;9.70;100.00
14594;BME280;7383;52.354;9.756;2022-11-15T00:05:41;-12624.47;;;9.71;100.00
14594;BME280;7383;52.354;9.756;2022-11-15T00:08:07;-12625.00;;;9.74;100.00
14594;BME280;7383;52.354;9.756;2022-11-15T00:10:34;-12625.00;;;9.74;100.00
14594;BME280;7383;52.354;9.756;2022-11-15T00:13:04;-12625.00;;;9.74;100.00
14594;BME280;7383;52.354;9.756;2022-11-15T00:15:34;-12624.66;;;9.72;100.00
14594;BME280;7383;52.354;9.756;2022-11-15T00:18:01;-12624.81;;;9.73;100.00
14594;BME280;7383;52.354;9.756;2022-11-15T00:20:27;-12624.03;;;9.68;100.00
14594;BME280;7383;52.354;9.756;2022-11-15T00:22:54;-12624.22;;;9.69;100.00
14594;BME280;7383;52.354;9.756;2022-11-15T00:25:20;-12624.03;;;9.68;100.00
14594;BME280;7383;52.354;9.756;2022-11-15T00:27:47;-12624.72;;;9.72;100.00
14594;BME280;7383;52.354;9.756;2022-11-15T00:30:13;-12625.34;;;9.76;100.00
14594;BME280;7383;52.354;9.756;2022-11-15T00:32:41;-12625.16;;;9.75;100.00
14594;BME280;7383;52.354;9.756;2022-11-15T00:35:08;-12625.97;;;9.79;100.00
14594;BME280;7383;52.354;9.756;2022-11-15T00:37:34;-12624.91;;;9.73;100.00
14594;BME280;7383;52.354;9.756;2022-11-15T00:40:01;-12625.25;;;9.75;100.00
14594;BME280;7383;52.354;9.756;2022-11-15T00:42:28;-12625.16;;;9.75;100.00
14594;BME280;7383;52.354;9.756;2022-11-15T00:44:54;-12625.69;;;9.78;100.00
14594;BME280;7383;52.354;9.756;2022-11-15T00:47:21;-12626.41;;;9.82;100.00
14594;BME280;7383;52.354;9.756;2022-11-15T00:49:49;-12626.22;;;9.81;100.00
14594;BME280;7383;52.354;9.756;2022-11-15T00:52:15;-12627.88;;;9.91;100.00
14594;BME280;7383;52.354;9.756;2022-11-15T00:54:42;-12628.22;;;9.93;100.00
14594;BME280;7383;52.354;9.756;2022-11-15T00:57:08;-12629.44;;;10.00;100.00
14594;BME280;7383;52.354;9.756;2022-11-15T00:59:35;-12630.31;;;10.05;100.00
14594;BME280;7383;52.354;9.756;2022-11-15T01:02:01;-12630.59;;;10.06;100.00
14594;BME280;7383;52.354;9.756;2022-11-15T01:04:28;-12631.28;;;10.10;100.00
14594;BME280;7383;52.354;9.756;2022-11-15T01:06:56;-12631.47;;;10.11;100.00
14594;BME280;7383;52.354;9.756;2022-11-15T01:09:23;-12631.38;;;10.11;100.00
14594;BME280;7383;52.354;9.756;2022-11-15T01:11:49;-12632.00;;;10.14;100.00
14594;BME280;7383;52.354;9.756;2022-11-15T01:14:16;-12632.59;;;10.18;100.00
14594;BME280;7383;52.354;9.756;2022-11-15T01:16:43;-12632.06;;;10.15;100.00
14594;BME280;7383;52.354;9.756;2022-11-15T01:19:10;-12632.50;;;10.17;100.00
14594;BME280;7383;52.354;9.756;2022-11-15T01:21:37;-12632.69;;;10.18;100.00
14594;BME280;7383;52.354;9.756;2022-11-15T01:24:07;-12632.44;;;10.17;100.00
14594;BME280;7383;52.354;9.756;2022-11-15T01:26:33;-12632.34;;;10.16;100.00
14594;BME280;7383;52.354;9.756;2022-11-15T01:29:00;-12632.88;;;10.19;100.00
14594;BME280;7383;52.354;9.756;2022-11-15T01:31:27;-12633.13;;;10.21;100.00
14594;BME280;7383;52.354;9.756;2022-11-15T01:33:53;-12633.56;;;10.23;100.00
14594;BME280;7383;52.354;9.756;2022-11-15T01:36:21;-12634.00;;;10.26;100.00
14594;BME280;7383;52.354;9.756;2022-11-15T01:38:53;-12633.66;;;10.24;100.00
14594;BME280;7383;52.354;9.756;2022-11-15T01:41:24;-12633.03;;;10.20;100.00
14594;BME280;7383;52.354;9.756;2022-11-15T01:43:53;-12632.78;;;10.19;100.00
14594;BME280;7383;52.354;9.756;2022-11-15T01:46:27;-12632.34;;;10.16;100.00
14594;BME280;7383;52.354;9.756;2022-11-15T01:48:57;-12632.34;;;10.16;100.00
14594;BME280;7383;52.354;9.756;2022-11-15T01:51:27;-12631.81;;;10.13;100.00
14594;BME280;7383;52.354;9.756;2022-11-15T01:54:00;-12632.00;;;10.14;100.00
14594;BME280;7383;52.354;9.756;2022-11-15T01:56:32;-12631.81;;;10.13;100.00
14594;BME280;7383;52.354;9.756;2022-11-15T01:59:03;-12631.81;;;10.13;100.00
14594;BME280;7383;52.354;9.756;2022-11-15T02:01:31;-12632.44;;;10.17;100.00
14594;BME280;7383;52.354;9.756;2022-11-15T02:04:01;-12633.22;;;10.21;100.00
14594;BME280;7383;52.354;9.756;2022-11-15T02:06:28;-12634.09;;;10.26;100.00
14594;BME280;7383;52.354;9.756;2022-11-15T02:09:01;-12634.44;;;10.28;100.00
14594;BME280;7383;52.354;9.756;2022-11-15T02:11:30;-12634.63;;;10.29;100.00
14594;BME280;7383;52.354;9.756;2022-11-15T02:13:58;-12634.97;;;10.31;100.00
14594;BME280;7383;52.354;9.756;2022-11-15T02:16:31;-12635.22;;;10.33;100.00
14594;BME280;7383;52.354;9.756;2022-11-15T02:19:15;-12635.22;;;10.33;100.00
14594;BME280;7383;52.354;9.756;2022-11-15T02:21:57;-12635.06;;;10.32;100.00
14594;BME280;7383;52.354;9.756;2022-11-15T02:24:54;-12634.97;;;10.31;100.00
14594;BME280;7383;52.354;9.756;2022-11-15T02:27:47;-12635.56;;;10.35;100.00
14594;BME280;7383;52.354;9.756;2022-11-15T02:30:33;-12635.50;;;10.34;100.00
14594;BME280;7383;52.354;9.756;2022-11-15T02:33:11;-12635.66;;;10.35;100.00
14594;BME280;7383;52.354;9.756;2022-11-15T02:35:44;-12636.44;;;10.40;100.00
14594;BME280;7383;52.354;9.756;2022-11-15T02:38:19;-12637.66;;;10.47;100.00
14594;BME280;7383;52.354;9.756;2022-11-15T02:40:52;-12639.06;;;10.55;100.00
14594;BME280;7383;52.354;9.756;2022-11-15T02:43:25;-12640.47;;;10.63;100.00
14594;BME280;7383;52.354;9.756;2022-11-15T02:46:17;-12642.22;;;10.73;100.00
14594;BME280;7383;52.354;9.756;2022-11-15T02:48:45;-12643.88;;;10.83;100.00
14594;BME280;7383;52.354;9.756;2022-11-15T02:51:14;-12645.63;;;10.93;100.00
14594;BME280;7383;52.354;9.756;2022-11-15T02:53:42;-12647.00;;;11.01;100.00
14594;BME280;7383;52.354;9.756;2022-11-15T02:56:09;-12647.81;;;11.06;100.00
14594;BME280;7383;52.354;9.756;2022-11-15T02:58:52;-12648.59;;;11.10;100.00
14594;BME280;7383;52.354;9.756;2022-11-15T03:01:36;-12648.94;;;11.12;100.00
14594;BME280;7383;52.354;9.756;2022-11-15T03:04:19;-12649.38;;;11.15;100.00
14594;BME280;7383;52.354;9.756;2022-11-15T03:06:52;-12650.16;;;11.19;100.00
14594;BME280;7383;52.354;9.756;2022-11-15T03:09:28;-12651.19;;;11.25;100.00
14594;BME280;7383;52.354;9.756;2022-11-15T03:12:02;-12652.34;;;11.32;100.00
14594;BME280;7383;52.354;9.756;2022-11-15T03:14:32;-12653.66;;;11.40;100.00
14594;BME280;7383;52.354;9.756;2022-11-15T03:17:07;-12654.53;;;11.45;100.00
14594;BME280;7383;52.354;9.756;2022-11-15T03:19:41;-12655.91;;;11.53;100.00
14594;BME280;7383;52.354;9.756;2022-11-15T03:22:11;-12656.19;;;11.54;100.00
14594;BME280;7383;52.354;9.756;2022-11-15T03:24:39;-12656.25;;;11.55;100.00
14594;BME280;7383;52.354;9.756;2022-11-15T03:27:07;-12656.53;;;11.56;100.00
14594;BME280;7383;52.354;9.756;2022-11-15T03:29:38;-12657.03;;;11.59;100.00
14594;BME280;7383;52.354;9.756;2022-11-15T03:32:12;-12657.56;;;11.62;100.00
14594;BME280;7383;52.354;9.756;2022-11-15T03:34:42;-12658.09;;;11.65;100.00
14594;BME280;7383;52.354;9.756;2022-11-15T03:37:12;-12658.53;;;11.68;100.00
14594;BME280;7383;52.354;9.756;2022-11-15T03:39:40;-12658.97;;;11.70;100.00
14594;BME280;7383;52.354;9.756;2022-11-15T03:42:14;-12658.63;;;11.68;100.00
14594;BME280;7383;52.354;9.756;2022-11-15T03:44:47;-12658.34;;;11.67;100.00
14594;BME280;7383;52.354;9.756;2022-11-15T03:47:22;-12657.47;;;11.62;100.00
14594;BME280;7383;52.354;9.756;2022-11-15T03:49:52;-12657.66;;;11.63;100.00
14594;BME280;7383;52.354;9.756;2022-11-15T03:52:20;-12657.66;;;11.63;100.00
14594;BME280;7383;52.354;9.756;2022-11-15T03:54:48;-12657.75;;;11.63;100.00
14594;BME280;7383;52.354;9.756;2022-11-15T03:57:15;-12657.47;;;11.62;100.00
14594;BME280;7383;52.354;9.756;2022-11-15T03:59:42;-12657.03;;;11.59;100.00
14594;BME280;7383;52.354;9.756;2022-11-15T04:02:09;-12657.31;;;11.61;100.00
14594;BME280;7383;52.354;9.756;2022-11-15T04:04:37;-12657.03;;;11.59;100.00
14594;BME280;7383;52.354;9.756;2022-11-15T04:07:03;-12657.31;;;11.61;100.00
14594;BME280;7383;52.354;9.756;2022-11-15T04:09:30;-12657.22;;;11.60;100.00
14594;BME280;7383;52.354;9.756;2022-11-15T04:11:56;-12657.47;;;11.62;100.00
14594;BME280;7383;52.354;9.756;2022-11-15T04:14:23;-12657.41;;;11.61;100.00
14594;BME280;7383;52.354;9.756;2022-11-15T06:47:02;-12664.53;;;12.03;100.00
14594;BME280;7383;52.354;9.756;2022-11-15T06:49:38;-12664.13;;;12.00;100.00
14594;BME280;7383;52.354;9.756;2022-11-15T06:52:16;-12664.03;;;12.00;100.00
14594;BME280;7383;52.354;9.756;2022-11-15T06:54:51;-12663.59;;;11.97;100.00
14594;BME280;7383;52.354;9.756;2022-11-15T06:57:18;-12664.13;;;12.00;100.00
14594;BME280;7383;52.354;9.756;2022-11-15T07:00:28;-12664.81;;;12.04;100.00
14594;BME280;7383;52.354;9.756;2022-11-15T07:03:05;-12664.47;;;12.02;100.00
14594;BME280;7383;52.354;9.756;2022-11-15T07:05:50;-12664.28;;;12.01;100.00
14594;BME280;7383;52.354;9.756;2022-11-15T07:08:26;-12664.28;;;12.01;100.00
14594;BME280;7383;52.354;9.756;2022-11-15T07:11:01;-12663.94;;;11.99;100.00
14594;BME280;7383;52.354;9.756;2022-11-15T07:13:31;-12663.69;;;11.98;100.00
14594;BME280;7383;52.354;9.756;2022-11-15T07:16:15;-12663.94;;;11.99;100.00
14594;BME280;7383;52.354;9.756;2022-11-15T07:18:49;-12663.69;;;11.98;100.00
14594;BME280;7383;52.354;9.756;2022-11-15T07:37:44;-12661.31;;;11.84;100.00
14594;BME280;7383;52.354;9.756;2022-11-15T07:40:20;-12661.50;;;11.85;100.00
14594;BME280;7383;52.354;9.756;2022-11-15T07:43:08;-12661.59;;;11.86;100.00
14594;BME280;7383;52.354;9.756;2022-11-15T07:45:42;-12661.22;;;11.83;100.00
14594;BME280;7383;52.354;9.756;2022-11-15T07:48:29;-12661.50;;;11.85;100.00
14594;BME280;7383;52.354;9.756;2022-11-15T07:50:56;-12661.50;;;11.85;100.00
14594;BME280;7383;52.354;9.756;2022-11-15T07:53:42;-12661.59;;;11.86;100.00
14594;BME280;7383;52.354;9.756;2022-11-15T07:56:36;-12661.66;;;11.86;100.00
14594;BME280;7383;52.354;9.756;2022-11-15T07:59:24;-12662.28;;;11.90;100.00
14594;BME280;7383;52.354;9.756;2022-11-15T08:01:55;-12662.44;;;11.91;100.00
14594;BME280;7383;52.354;9.756;2022-11-15T08:05:01;-12662.44;;;11.91;100.00
14594;BME280;7383;52.354;9.756;2022-11-15T08:27:41;-12670.56;;;12.38;100.00
14594;BME280;7383;52.354;9.756;2022-11-15T08:30:54;-12672.13;;;12.47;100.00
14594;BME280;7383;52.354;9.756;2022-11-15T08:33:57;-12672.56;;;12.49;100.00
14594;BME280;7383;52.354;9.756;2022-11-15T08:40:12;-12672.81;;;12.51;100.00
14594;BME280;7383;52.354;9.756;2022-11-15T08:49:45;-12673.78;;;12.56;100.00
14594;BME280;7383;52.354;9.756;2022-11-15T08:52:25;-12674.56;;;12.61;100.00
14594;BME280;7383;52.354;9.756;2022-11-15T09:07:59;-12678.75;;;12.85;100.00
14594;BME280;7383;52.354;9.756;2022-11-15T09:10:28;-12679.44;;;12.89;100.00
14594;BME280;7383;52.354;9.756;2022-11-15T09:12:56;-12679.97;;;12.92;100.00
14594;BME280;7383;52.354;9.756;2022-11-15T09:15:25;-12681.09;;;12.99;100.00
14594;BME280;7383;52.354;9.756;2022-11-15T09:17:53;-12681.69;;;13.02;100.00
14594;BME280;7383;52.354;9.756;2022-11-15T09:20:20;-12682.13;;;13.05;100.00
14594;BME280;7383;52.354;9.756;2022-11-15T09:30:05;-12683.97;;;13.15;100.00
14594;BME280;7383;52.354;9.756;2022-11-15T09:37:10;-12685.00;;;13.21;100.00
14594;BME280;7383;52.354;9.756;2022-11-15T09:46:30;-12686.31;;;13.29;100.00
14594;BME280;7383;52.354;9.756;2022-11-15T09:49:15;-12687.09;;;13.34;100.00
14594;BME280;7383;52.354;9.756;2022-11-15T09:51:54;-12687.09;;;13.34;100.00
14594;BME280;7383;52.354;9.756;2022-11-15T09:54:45;-12687.72;;;13.37;100.00
14594;BME280;7383;52.354;9.756;2022-11-15T09:57:55;-12688.50;;;13.42;100.00
14594;BME280;7383;52.354;9.756;2022-11-15T10:04:21;-12690.13;;;13.51;100.00
14594;BME280;7383;52.354;9.756;2022-11-15T10:08:02;-12691.53;;;13.59;100.00
14594;BME280;7383;52.354;9.756;2022-11-15T10:19:26;-12695.88;;;13.85;100.00
14594;BME280;7383;52.354;9.756;2022-11-15T10:22:05;-12696.84;;;13.90;100.00
14594;BME280;7383;52.354;9.756;2022-11-15T10:24:42;-12697.78;;;13.96;100.00
14594;BME280;7383;52.354;9.756;2022-11-15T10:27:11;-12698.22;;;13.98;100.00
14594;BME280;7383;52.354;9.756;2022-11-15T10:29:43;-12699.44;;;14.05;100.00
14594;BME280;7383;52.354;9.756;2022-11-15T10:32:11;-12700.38;;;14.11;100.00
14594;BME280;7383;52.354;9.756;2022-11-15T10:34:39;-12701.88;;;14.19;100.00
14594;BME280;7383;52.354;9.756;2022-11-15T10:37:05;-12703.09;;;14.26;100.00
14594;BME280;7383;52.354;9.756;2022-11-15T10:39:32;-12704.72;;;14.36;100.00
14594;BME280;7383;52.354;9.756;2022-11-15T10:42:15;-12706.56;;;14.47;100.00
14594;BME280;7383;52.354;9.756;2022-11-15T10:44:43;-12708.13;;;14.56;100.00
14594;BME280;7383;52.354;9.756;2022-11-15T10:47:31;-12710.72;;;14.71;100.00
14594;BME280;7383;52.354;9.756;2022-11-15T10:50:02;-12713.50;;;14.87;100.00
14594;BME280;7383;52.354;9.756;2022-11-15T10:52:30;-12716.88;;;15.07;100.00
14594;BME280;7383;52.354;9.756;2022-11-15T10:55:01;-12721.31;;;15.33;100.00
14594;BME280;7383;52.354;9.756;2022-11-15T10:57:31;-12723.91;;;15.48;100.00
14594;BME280;7383;52.354;9.756;2022-11-15T11:00:00;-12726.50;;;15.63;100.00
14594;BME280;7383;52.354;9.756;2022-11-15T11:02:30;-12729.72;;;15.82;100.00
14594;BME280;7383;52.354;9.756;2022-11-15T11:04:59;-12731.28;;;15.91;100.00
14594;BME280;7383;52.354;9.756;2022-11-15T11:07:28;-12730.84;;;15.88;100.00
14594;BME280;7383;52.354;9.756;2022-11-15T11:10:00;-12728.59;;;15.75;100.00
14594;BME280;7383;52.354;9.756;2022-11-15T11:12:29;-12727.19;;;15.67;100.00
14594;BME280;7383;52.354;9.756;2022-11-15T11:14:57;-12727.47;;;15.68;100.00
14594;BME280;7383;52.354;9.756;2022-11-15T11:20:59;-12734.81;;;16.11;100.00
14594;BME280;7383;52.354;9.756;2022-11-15T11:23:42;-12737.94;;;16.30;100.00
14594;BME280;7383;52.354;9.756;2022-11-15T11:26:24;-12741.13;;;16.48;100.00
14594;BME280;7383;52.354;9.756;2022-11-15T11:29:02;-12750.47;;;17.03;100.00
14594;BME280;7383;52.354;9.756;2022-11-15T11:31:37;-12768.34;;;18.07;100.00
14594;BME280;7383;52.354;9.756;2022-11-15T11:34:13;-12786.38;;;19.13;100.00
14594;BME280;7383;52.354;9.756;2022-11-15T11:36:49;-12805.19;;;20.24;100.00
14594;BME280;7383;52.354;9.756;2022-11-15T11:39:24;-12816.97;;;20.93;100.00
14594;BME280;7383;52.354;9.756;2022-11-15T11:42:04;-12829.66;;;21.68;100.00
14594;BME280;7383;52.354;9.756;2022-11-15T11:44:41;-12837.91;;;22.16;100.00
14594;BME280;7383;52.354;9.756;2022-11-15T11:47:12;-12848.34;;;22.78;100.00
14594;BME280;7383;52.354;9.756;2022-11-15T11:49:45;-12861.66;;;23.57;100.00
14594;BME280;7383;52.354;9.756;2022-11-15T11:52:17;-12879.75;;;24.64;100.00
14594;BME280;7383;52.354;9.756;2022-11-15T11:54:52;-12879.69;;;24.63;100.00
14594;BME280;7383;52.354;9.756;2022-11-15T11:57:28;-12869.94;;;24.06;100.00
14594;BME280;7383;52.354;9.756;2022-11-15T12:00:02;-12864.81;;;23.75;100.00
14594;BME280;7383;52.354;9.756;2022-11-15T12:02:32;-12867.72;;;23.92;100.00
14594;BME280;7383;52.354;9.756;2022-11-15T12:05:13;-12869.19;;;24.01;100.00
14594;BME280;7383;52.354;9.756;2022-11-15T12:07:44;-12868.50;;;23.97;100.00
14594;BME280;7383;52.354;9.756;2022-11-15T12:10:19;-12873.19;;;24.25;100.00
14594;BME280;7383;52.354;9.756;2022-11-15T12:12:54;-12872.16;;;24.19;100.00
14594;BME280;7383;52.354;9.756;2022-11-15T12:15:24;-12863.72;;;23.69;100.00
14594;BME280;7383;52.354;9.756;2022-11-15T12:17:52;-12847.81;;;22.75;100.00
14594;BME280;7383;52.354;9.756;2022-11-15T12:20:22;-12837.47;;;22.14;100.00
14594;BME280;7383;52.354;9.756;2022-11-15T12:22:56;-12836.88;;;22.10;100.00
14594;BME280;7383;52.354;9.756;2022-11-15T12:25:28;-12837.38;;;22.13;100.00
14594;BME280;7383;52.354;9.756;2022-11-15T12:28:00;-12833.09;;;21.88;100.00
14594;BME280;7383;52.354;9.756;2022-11-15T12:30:43;-12829.06;;;21.64;100.00
14594;BME280;7383;52.354;9.756;2022-11-15T12:33:29;-12819.88;;;21.10;100.00
14594;BME280;7383;52.354;9.756;2022-11-15T12:35:58;-12809.31;;;20.48;100.00
14594;BME280;7383;52.354;9.756;2022-11-15T12:38:52;-12804.09;;;20.17;100.00
14594;BME280;7383;52.354;9.756;2022-11-15T12:41:19;-12797.13;;;19.76;100.00
14594;BME280;7383;52.354;9.756;2022-11-15T12:43:48;-12791.53;;;19.43;100.00
14594;BME280;7383;52.354;9.756;2022-11-15T12:46:21;-12786.63;;;19.14;100.00
14594;BME280;7383;52.354;9.756;2022-11-15T12:48:51;-12782.91;;;18.93;100.00
14594;BME280;7383;52.354;9.756;2022-11-15T12:51:20;-12778.88;;;18.69;100.00
14594;BME280;7383;52.354;9.756;2022-11-15T12:53:46;-12777.31;;;18.60;100.00
14594;BME280;7383;52.354;9.756;2022-11-15T12:56:24;-12777.91;;;18.63;100.00
14594;BME280;7383;52.354;9.756;2022-11-15T12:58:56;-12778.97;;;18.70;100.00
14594;BME280;7383;52.354;9.756;2022-11-15T13:02:00;-12778.59;;;18.67;100.00
14594;BME280;7383;52.354;9.756;2022-11-15T13:04:29;-12774.03;;;18.41;100.00
14594;BME280;7383;52.354;9.756;2022-11-15T13:10:33;-12773.69;;;18.39;100.00
14594;BME280;7383;52.354;9.756;2022-11-15T13:13:00;-12777.91;;;18.63;100.00
14594;BME280;7383;52.354;9.756;2022-11-15T13:15:43;-12775.25;;;18.48;100.00
14594;BME280;7383;52.354;9.756;2022-11-15T13:18:29;-12770.94;;;18.23;100.00
14594;BME280;7383;52.354;9.756;2022-11-15T13:20:56;-12767.22;;;18.01;100.00
14594;BME280;7383;52.354;9.756;2022-11-15T13:23:23;-12764.56;;;17.85;100.00
14594;BME280;7383;52.354;9.756;2022-11-15T13:26:02;-12763.09;;;17.77;100.00
14594;BME280;7383;52.354;9.756;2022-11-15T13:28:33;-12759.53;;;17.56;100.00
14594;BME280;7383;52.354;9.756;2022-11-15T13:31:02;-12757.81;;;17.46;100.00
14594;BME280;7383;52.354;9.756;2022-11-15T13:33:32;-12756.78;;;17.40;100.00
14594;BME280;7383;52.354;9.756;2022-11-15T13:36:02;-12756.00;;;17.35;100.00
14594;BME280;7383;52.354;9.756;2022-11-15T13:38:43;-12754.63;;;17.27;100.00
14594;BME280;7383;52.354;9.756;2022-11-15T13:41:20;-12751.69;;;17.10;100.00
14594;BME280;7383;52.354;9.756;2022-11-15T13:43:47;-12751.25;;;17.07;100.00
14594;BME280;7383;52.354;9.756;2022-11-15T13:46:17;-12750.38;;;17.02;100.00
14594;BME280;7383;52.354;9.756;2022-11-15T13:48:44;-12749.00;;;16.94;100.00
14594;BME280;7383;52.354;9.756;2022-11-15T13:51:17;-12747.63;;;16.86;100.00
14594;BME280;7383;52.354;9.756;2022-11-15T13:53:48;-12745.81;;;16.76;100.00
14594;BME280;7383;52.354;9.756;2022-11-15T13:56:18;-12743.28;;;16.61;100.00
14594;BME280;7383;52.354;9.756;2022-11-15T13:58:46;-12741.66;;;16.51;100.00
14594;BME280;7383;52.354;9.756;2022-11-15T14:01:16;-12741.66;;;16.51;100.00
14594;BME280;7383;52.354;9.756;2022-11-15T14:03:49;-12739.94;;;16.41;100.00
14594;BME280;7383;52.354;9.756;2022-11-15T14:06:47;-12738.72;;;16.34;100.00
14594;BME280;7383;52.354;9.756;2022-11-15T14:09:35;-12736.97;;;16.24;100.00
14594;BME280;7383;52.354;9.756;2022-11-15T14:12:28;-12736.03;;;16.18;100.00
14594;BME280;7383;52.354;9.756;2022-11-15T14:14:59;-12735.44;;;16.15;100.00
14594;BME280;7383;52.354;9.756;2022-11-15T14:17:35;-12734.22;;;16.08;100.00
14594;BME280;7383;52.354;9.756;2022-11-15T14:20:32;-12732.91;;;16.00;100.00
14594;BME280;7383;52.354;9.756;2022-11-15T14:23:01;-12731.34;;;15.91;100.00
14594;BME280;7383;52.354;9.756;2022-11-15T14:28:11;-12730.50;;;15.86;100.00
14594;BME280;7383;52.354;9.756;2022-11-15T14:29:25;-12728.75;;;15.76;100.00
14594;BME280;7383;52.354;9.756;2022-11-15T14:31:52;-12727.88;;;15.71;100.00
14594;BME280;7383;52.354;9.756;2022-11-15T14:34:20;-12726.94;;;15.65;100.00
14594;BME280;7383;52.354;9.756;2022-11-15T14:36:47;-12725.97;;;15.60;100.00
14594;BME280;7383;52.354;9.756;2022-11-15T14:39:14;-12725.13;;;15.55;100.00
14594;BME280;7383;52.354;9.756;2022-11-15T14:41:40;-12724.06;;;15.49;100.00
14594;BME280;7383;52.354;9.756;2022-11-15T14:44:10;-12723.72;;;15.47;100.00
14594;BME280;7383;52.354;9.756;2022-11-15T14:46:38;-12723.47;;;15.45;100.00
14594;BME280;7383;52.354;9.756;2022-11-15T14:49:05;-12723.03;;;15.43;100.00
14594;BME280;7383;52.354;9.756;2022-11-15T14:51:31;-12722.44;;;15.39;100.00
14594;BME280;7383;52.354;9.756;2022-11-15T14:54:01;-12722.09;;;15.37;100.00
14594;BME280;7383;52.354;9.756;2022-11-15T14:56:27;-12721.66;;;15.35;100.00
14594;BME280;7383;52.354;9.756;2022-11-15T14:58:54;-12721.38;;;15.33;100.00
14594;BME280;7383;52.354;9.756;2022-11-15T15:01:23;-12720.88;;;15.30;100.00
14594;BME280;7383;52.354;9.756;2022-11-15T15:03:52;-12719.75;;;15.23;100.00
14594;BME280;7383;52.354;9.756;2022-11-15T15:06:21;-12719.47;;;15.22;100.00
14594;BME280;7383;52.354;9.756;2022-11-15T15:08:53;-12719.22;;;15.20;100.00
14594;BME280;7383;52.354;9.756;2022-11-15T15:11:25;-12718.78;;;15.18;100.00
14594;BME280;7383;52.354;9.756;2022-11-15T15:13:52;-12718.00;;;15.13;100.00
14594;BME280;7383;52.354;9.756;2022-11-15T15:16:21;-12717.91;;;15.13;100.00
14594;BME280;7383;52.354;9.756;2022-11-15T15:18:48;-12717.16;;;15.08;100.00
14594;BME280;7383;52.354;9.756;2022-11-15T15:21:20;-12717.16;;;15.08;100.00
14594;BME280;7383;52.354;9.756;2022-11-15T15:23:47;-12716.63;;;15.05;100.00
14594;BME280;7383;52.354;9.756;2022-11-15T15:26:14;-12716.00;;;15.02;100.00
14594;BME280;7383;52.354;9.756;2022-11-15T15:28:41;-12715.75;;;15.00;100.00
14594;BME280;7383;52.354;9.756;2022-11-15T15:31:10;-12715.59;;;14.99;100.00
14594;BME280;7383;52.354;9.756;2022-11-15T15:33:40;-12715.59;;;14.99;100.00
14594;BME280;7383;52.354;9.756;2022-11-15T15:36:09;-12714.97;;;14.96;100.00
14594;BME280;7383;52.354;9.756;2022-11-15T15:38:38;-12714.72;;;14.94;100.00
14594;BME280;7383;52.354;9.756;2022-11-15T15:41:09;-12714.63;;;14.94;100.00
14594;BME280;7383;52.354;9.756;2022-11-15T15:43:36;-12714.19;;;14.91;100.00
14594;BME280;7383;52.354;9.756;2022-11-15T15:46:03;-12714.03;;;14.90;100.00
14594;BME280;7383;52.354;9.756;2022-11-15T15:48:29;-12713.75;;;14.89;100.00
14594;BME280;7383;52.354;9.756;2022-11-15T15:50:58;-12713.25;;;14.86;100.00
14594;BME280;7383;52.354;9.756;2022-11-15T15:53:25;-12713.31;;;14.86;100.00
14594;BME280;7383;52.354;9.756;2022-11-15T15:55:56;-12712.72;;;14.83;100.00
14594;BME280;7383;52.354;9.756;2022-11-15T15:58:24;-12711.94;;;14.78;100.00
14594;BME280;7383;52.354;9.756;2022-11-15T16:00:56;-12711.41;;;14.75;100.00
14594;BME280;7383;52.354;9.756;2022-11-15T16:03:27;-12710.72;;;14.71;100.00
14594;BME280;7383;52.354;9.756;2022-11-15T16:09:39;-12709.16;;;14.62;100.00
14594;BME280;7383;52.354;9.756;2022-11-15T16:22:34;-12707.78;;;14.54;100.00
14594;BME280;7383;52.354;9.756;2022-11-15T16:28:00;-12708.28;;;14.57;100.00
14594;BME280;7383;52.354;9.756;2022-11-15T16:31:00;-12708.63;;;14.59;100.00
14594;BME280;7383;52.354;9.756;2022-11-15T16:33:49;-12709.06;;;14.61;100.00
14594;BME280;7383;52.354;9.756;2022-11-15T16:36:40;-12708.72;;;14.59;100.00
14594;BME280;7383;52.354;9.756;2022-11-15T16:42:39;-12708.38;;;14.57;100.00
14594;BME280;7383;52.354;9.756;2022-11-15T16:45:12;-12708.22;;;14.56;100.00
14594;BME280;7383;52.354;9.756;2022-11-15T16:47:42;-12707.94;;;14.55;100.00
14594;BME280;7383;52.354;9.756;2022-11-15T16:53:21;-12707.09;;;14.50;100.00
14594;BME280;7383;52.354;9.756;2022-11-15T16:55:48;-12707.09;;;14.50;100.00
14594;BME280;7383;52.354;9.756;2022-11-15T16:58:16;-12706.56;;;14.47;100.00
14594;BME280;7383;52.354;9.756;2022-11-15T17:00:42;-12706.38;;;14.46;100.00
14594;BME280;7383;52.354;9.756;2022-11-15T17:03:15;-12706.13;;;14.44;100.00
14594;BME280;7383;52.354;9.756;2022-11-15T17:05:41;-12705.94;;;14.43;100.00
14594;BME280;7383;52.354;9.756;2022-11-15T17:08:08;-12705.69;;;14.42;100.00
14594;BME280;7383;52.354;9.756;2022-11-15T17:10:38;-12705.88;;;14.43;100.00
14594;BME280;7383;52.354;9.756;2022-11-15T17:13:05;-12705.16;;;14.39;100.00
14594;BME280;7383;52.354;9.756;2022-11-15T17:15:33;-12704.81;;;14.37;100.00
14594;BME280;7383;52.354;9.756;2022-11-15T17:18:03;-12704.47;;;14.35;100.00
14594;BME280;7383;52.354;9.756;2022-11-15T17:20:35;-12703.88;;;14.31;100.00
14594;BME280;7383;52.354;9.756;2022-11-15T17:23:01;-12702.91;;;14.25;100.00
14594;BME280;7383;52.354;9.756;2022-11-15T17:25:28;-12702.75;;;14.24;100.00
14594;BME280;7383;52.354;9.756;2022-11-15T17:27:55;-12702.38;;;14.22;100.00
14594;BME280;7383;52.354;9.756;2022-11-15T17:30:21;-12701.25;;;14.16;100.00
14594;BME280;7383;52.354;9.756;2022-11-15T17:32:49;-12700.75;;;14.13;100.00
14594;BME280;7383;52.354;9.756;2022-11-15T17:35:16;-12699.97;;;14.08;100.00
14594;BME280;7383;52.354;9.756;2022-11-15T17:37:42;-12699.88;;;14.08;100.00
14594;BME280;7383;52.354;9.756;2022-11-15T17:40:10;-12699.53;;;14.06;100.00
14594;BME280;7383;52.354;9.756;2022-11-15T17:42:39;-12699.53;;;14.06;100.00
14594;BME280;7383;52.354;9.756;2022-11-15T17:45:07;-12699.00;;;14.03;100.00
14594;BME280;7383;52.354;9.756;2022-11-15T17:47:55;-12698.81;;;14.02;100.00
14594;BME280;7383;52.354;9.756;2022-11-15T17:50:22;-12698.75;;;14.01;100.00
14594;BME280;7383;52.354;9.756;2022-11-15T17:52:49;-12698.47;;;14.00;100.00